createdAt,value
2023-04-17T00:01:55.832Z,83.50
2023-04-17T00:04:24.590Z,83.50
2023-04-17T00:06:53.941Z,83.50
2023-04-17T00:09:22.438Z,83.50
2023-04-17T00:11:52.026Z,83.50
2023-04-17T00:14:20.225Z,83.50
2023-04-17T00:16:48.598Z,84.40
2023-04-17T00:19:16.953Z,83.60
2023-04-17T00:21:45.210Z,83.60
2023-04-17T00:24:13.814Z,83.60
2023-04-17T00:26:42.077Z,83.50
2023-04-17T00:29:11.978Z,83.60
2023-04-17T00:31:40.507Z,83.60
2023-04-17T00:34:09.065Z,83.60
2023-04-17T00:36:37.277Z,83.60
2023-04-17T00:39:05.652Z,83.60
2023-04-17T00:41:34.124Z,83.60
2023-04-17T00:44:02.341Z,83.60
2023-04-17T00:46:32.338Z,83.60
2023-04-17T00:49:01.155Z,83.60
2023-04-17T00:51:31.846Z,83.60
2023-04-17T00:54:01.280Z,83.60
2023-04-17T00:56:30.631Z,83.50
2023-04-17T00:59:00.224Z,83.60
2023-04-17T01:01:28.781Z,83.60
2023-04-17T01:04:01.841Z,83.60
2023-04-17T01:06:30.289Z,83.60
2023-04-17T01:08:59.768Z,83.60
2023-04-17T01:11:28.468Z,83.60
2023-04-17T01:13:56.724Z,83.70
2023-04-17T01:16:25.176Z,83.70
2023-04-17T01:18:53.628Z,83.70
2023-04-17T01:21:23.238Z,83.60
2023-04-17T01:23:53.180Z,83.70
2023-04-17T01:26:25.504Z,83.60
2023-04-17T01:28:56.188Z,83.60
2023-04-17T01:31:25.879Z,83.70
2023-04-17T01:33:54.444Z,83.70
2023-04-17T01:36:23.689Z,83.60
2023-04-17T01:38:52.091Z,83.70
2023-04-17T01:41:20.483Z,83.60
2023-04-17T01:43:50.417Z,83.70
2023-04-17T01:46:19.214Z,83.70
2023-04-17T01:48:47.757Z,83.70
2023-04-17T01:51:16.020Z,83.70
2023-04-17T01:53:44.367Z,83.70
2023-04-17T01:56:13.857Z,83.70
2023-04-17T01:58:42.993Z,83.70
2023-04-17T02:01:13.013Z,83.80
2023-04-17T02:03:42.089Z,83.70
2023-04-17T02:06:10.612Z,83.70
2023-04-17T02:08:39.009Z,83.80
2023-04-17T02:11:07.286Z,83.70
2023-04-17T02:13:35.508Z,83.80
2023-04-17T02:16:04.815Z,83.70
2023-04-17T02:18:37.810Z,83.70
2023-04-17T02:21:06.111Z,83.70
2023-04-17T02:23:37.369Z,83.80
2023-04-17T02:26:06.411Z,83.80
2023-04-17T02:28:34.635Z,83.80
2023-04-17T02:31:07.689Z,83.80
2023-04-17T02:33:37.755Z,83.80
2023-04-17T02:36:07.515Z,83.80
2023-04-17T02:38:40.313Z,83.80
2023-04-17T02:41:08.542Z,83.80
2023-04-17T02:43:37.368Z,83.80
2023-04-17T02:46:05.725Z,83.90
2023-04-17T02:48:33.880Z,83.80
2023-04-17T02:51:03.510Z,83.80
2023-04-17T02:53:32.538Z,83.80
2023-04-17T02:56:00.785Z,84.70
2023-04-17T02:58:29.997Z,83.90
2023-04-17T03:01:02.811Z,83.90
2023-04-17T03:03:35.182Z,83.90
2023-04-17T03:06:09.443Z,83.90
2023-04-17T03:08:38.544Z,83.80
2023-04-17T03:11:07.570Z,83.90
2023-04-17T03:13:37.294Z,83.90
2023-04-17T03:16:06.409Z,83.90
2023-04-17T03:18:40.270Z,83.90
2023-04-17T03:21:10.494Z,83.90
2023-04-17T03:23:38.699Z,83.90
2023-04-17T03:26:08.028Z,83.90
2023-04-17T03:28:36.288Z,84.80
2023-04-17T03:31:06.502Z,83.90
2023-04-17T03:33:37.839Z,84.00
2023-04-17T03:36:07.081Z,83.90
2023-04-17T03:38:38.025Z,84.00
2023-04-17T03:41:08.653Z,84.00
2023-04-17T03:43:37.033Z,84.00
2023-04-17T03:46:05.352Z,84.00
2023-04-17T03:48:33.688Z,84.00
2023-04-17T03:51:02.120Z,84.00
2023-04-17T03:53:31.568Z,84.10
2023-04-17T03:56:04.665Z,84.00
2023-04-17T03:58:38.154Z,84.10
2023-04-17T04:01:10.895Z,84.00
2023-04-17T04:03:44.935Z,84.10
2023-04-17T04:06:13.328Z,84.10
2023-04-17T04:08:41.592Z,84.00
2023-04-17T04:11:11.178Z,84.00
2023-04-17T04:13:40.947Z,84.00
2023-04-17T04:16:10.508Z,84.00
2023-04-17T04:18:40.950Z,84.10
2023-04-17T04:21:09.751Z,84.10
2023-04-17T04:23:42.821Z,84.10
2023-04-17T04:26:14.381Z,84.10
2023-04-17T04:28:48.672Z,84.20
2023-04-17T04:31:22.722Z,84.10
2023-04-17T04:33:55.085Z,84.10
2023-04-17T04:36:24.912Z,84.10
2023-04-17T04:39:06.774Z,84.10
2023-04-17T04:41:38.725Z,84.20
2023-04-17T04:44:10.439Z,84.70
2023-04-17T04:46:40.539Z,84.20
2023-04-17T04:49:08.945Z,85.10
2023-04-17T04:51:37.514Z,84.30
2023-04-17T04:54:07.944Z,84.30
2023-04-17T04:56:45.833Z,85.10
2023-04-17T04:59:15.799Z,84.30
2023-04-17T05:01:50.600Z,84.30
2023-04-17T05:04:21.619Z,84.30
2023-04-17T05:06:52.847Z,84.30
2023-04-17T05:09:22.391Z,84.30
2023-04-17T05:11:54.865Z,84.30
2023-04-17T05:14:23.711Z,84.40
2023-04-17T05:16:55.227Z,84.50
2023-04-17T05:19:23.977Z,84.60
2023-04-17T05:21:57.428Z,84.70
2023-04-17T05:24:25.708Z,84.60
2023-04-17T05:26:55.267Z,84.60
2023-04-17T05:29:25.125Z,84.50
2023-04-17T05:31:54.989Z,84.50
2023-04-17T05:34:42.530Z,84.60
2023-04-17T05:37:11.842Z,84.50
2023-04-17T05:39:41.031Z,84.40
2023-04-17T05:42:11.055Z,85.30
2023-04-17T05:44:40.221Z,84.50
2023-04-17T05:47:09.150Z,84.50
2023-04-17T05:49:38.558Z,84.60
2023-04-17T05:52:07.194Z,84.40
2023-04-17T05:54:39.740Z,84.50
2023-04-17T05:57:10.929Z,84.40
2023-04-17T05:59:39.394Z,84.50
2023-04-17T06:02:10.183Z,84.40
2023-04-17T06:04:38.685Z,84.50
2023-04-17T06:07:08.108Z,84.50
2023-04-17T06:09:37.701Z,84.50
2023-04-17T06:12:06.463Z,84.40
2023-04-17T06:14:36.311Z,85.20
2023-04-17T06:17:08.390Z,84.40
2023-04-17T06:19:36.650Z,84.40
2023-04-17T06:22:05.250Z,84.50
2023-04-17T06:24:33.539Z,84.40
2023-04-17T06:27:02.010Z,84.40
2023-04-17T06:29:30.211Z,84.40
2023-04-17T06:32:00.023Z,84.30
2023-04-17T06:34:28.591Z,84.30
2023-04-17T06:36:57.522Z,84.40
2023-04-17T06:39:25.766Z,84.20
2023-04-17T06:41:54.177Z,84.40
2023-04-17T06:44:28.401Z,84.30
2023-04-17T06:46:59.447Z,84.30
2023-04-17T06:49:30.242Z,84.20
2023-04-17T06:51:58.634Z,84.10
2023-04-17T06:54:27.243Z,84.20
2023-04-17T06:56:56.033Z,84.10
2023-04-17T06:59:24.300Z,84.10
2023-04-17T07:01:52.739Z,84.10
2023-04-17T07:04:21.764Z,84.00
2023-04-17T07:06:52.414Z,84.10
2023-04-17T07:09:20.684Z,84.10
2023-04-17T07:11:48.924Z,84.10
2023-04-17T07:14:17.362Z,84.10
2023-04-17T07:16:45.636Z,84.10
2023-04-17T07:19:14.425Z,84.10
2023-04-17T07:21:43.051Z,84.10
2023-04-17T07:24:12.613Z,84.10
2023-04-17T07:26:43.332Z,84.10
2023-04-17T07:29:11.744Z,84.20
2023-04-17T07:31:40.156Z,84.10
2023-04-17T07:34:08.430Z,84.20
2023-04-17T07:36:37.107Z,84.10
2023-04-17T07:39:06.517Z,84.10
2023-04-17T07:41:36.123Z,84.10
2023-04-17T07:44:05.750Z,84.10
2023-04-17T07:46:34.140Z,84.20
2023-04-17T07:49:02.528Z,84.10
2023-04-17T07:51:32.201Z,84.20
2023-04-17T07:54:01.386Z,83.90
2023-04-17T07:56:31.171Z,83.80
2023-04-17T07:59:00.757Z,83.70
2023-04-17T08:01:28.907Z,84.80
2023-04-17T08:03:58.464Z,83.90
2023-04-17T08:06:27.386Z,83.90
2023-04-17T08:08:55.671Z,83.90
2023-04-17T08:11:23.949Z,83.90
2023-04-17T08:13:52.349Z,83.90
2023-04-17T08:16:22.214Z,83.90
2023-04-17T08:18:50.586Z,83.90
2023-04-17T08:21:19.065Z,84.00
2023-04-17T08:23:47.574Z,83.90
2023-04-17T08:26:18.238Z,84.10
2023-04-17T08:28:46.516Z,84.00
2023-04-17T08:31:14.936Z,83.90
2023-04-17T08:33:44.617Z,84.00
2023-04-17T08:36:13.193Z,83.90
2023-04-17T08:38:42.115Z,83.30
2023-04-17T08:41:13.989Z,84.00
2023-04-17T08:43:44.571Z,84.10
2023-04-17T08:46:13.143Z,84.00
2023-04-17T08:48:41.472Z,84.10
2023-04-17T08:51:11.201Z,83.90
2023-04-17T08:53:39.522Z,83.90
2023-04-17T08:56:09.237Z,84.00
2023-04-17T08:58:37.952Z,84.00
2023-04-17T09:01:11.047Z,83.90
2023-04-17T09:03:44.165Z,84.00
2023-04-17T09:06:15.499Z,83.90
2023-04-17T09:08:59.028Z,83.90
2023-04-17T09:11:28.280Z,84.00
2023-04-17T09:13:56.565Z,84.30
2023-04-17T09:16:25.847Z,83.90
2023-04-17T09:19:07.032Z,83.90
2023-04-17T09:21:36.753Z,83.90
2023-04-17T09:24:06.778Z,83.90
2023-04-17T09:26:35.824Z,83.80
2023-04-17T09:29:08.658Z,83.80
2023-04-17T09:31:37.947Z,83.70
2023-04-17T09:34:07.805Z,83.70
2023-04-17T09:36:38.917Z,83.70
2023-04-17T09:39:19.146Z,83.60
2023-04-17T09:41:47.936Z,83.60
2023-04-17T09:44:26.865Z,83.60
2023-04-17T09:46:55.719Z,83.60
2023-04-17T09:49:29.891Z,83.60
2023-04-17T09:52:00.507Z,83.60
2023-04-17T09:54:31.362Z,83.70
2023-04-17T09:56:59.887Z,83.80
2023-04-17T09:59:28.662Z,83.70
2023-04-17T10:01:57.306Z,83.70
2023-04-17T10:04:25.656Z,83.80
2023-04-17T10:06:54.239Z,83.70
2023-04-17T10:09:23.870Z,83.70
2023-04-17T10:11:52.618Z,83.70
2023-04-17T10:14:26.907Z,83.70
2023-04-17T10:16:55.504Z,83.70
2023-04-17T10:19:29.777Z,83.70
2023-04-17T10:22:34.048Z,83.60
2023-04-17T10:25:26.183Z,83.70
2023-04-17T10:27:59.362Z,83.60
2023-04-17T10:30:50.818Z,83.50
2023-04-17T10:33:24.802Z,83.50
2023-04-17T10:35:53.543Z,83.50
2023-04-17T10:38:35.452Z,83.40
2023-04-17T10:41:09.356Z,83.50
2023-04-17T10:43:42.596Z,83.40
2023-04-17T10:46:12.528Z,83.40
2023-04-17T10:48:47.336Z,83.30
2023-04-17T10:51:41.009Z,83.20
2023-04-17T10:54:13.637Z,83.00
2023-04-17T10:56:46.236Z,83.10
2023-04-17T10:59:16.073Z,83.10
2023-04-17T11:02:00.900Z,83.00
2023-04-17T11:04:32.028Z,83.00
2023-04-17T11:07:00.667Z,83.00
2023-04-17T11:09:30.382Z,83.00
2023-04-17T11:12:02.771Z,83.00
2023-04-17T11:14:32.100Z,83.00
2023-04-17T11:17:00.365Z,83.00
2023-04-17T11:19:28.816Z,82.90
2023-04-17T11:21:58.858Z,83.00
2023-04-17T11:24:28.231Z,83.00
2023-04-17T11:26:59.667Z,83.00
2023-04-17T11:29:29.623Z,83.00
2023-04-17T11:31:59.133Z,83.20
2023-04-17T11:34:27.857Z,83.10
2023-04-17T11:36:57.822Z,83.10
2023-04-17T11:39:29.128Z,83.10
2023-04-17T11:41:57.973Z,83.00
2023-04-17T11:44:27.039Z,83.00
2023-04-17T11:46:58.966Z,82.90
2023-04-17T11:49:28.331Z,83.00
2023-04-17T11:51:59.710Z,83.10
2023-04-17T11:54:28.596Z,83.00
2023-04-17T11:57:01.454Z,83.00
2023-04-17T11:59:33.636Z,83.10
2023-04-17T12:02:03.883Z,83.00
2023-04-17T12:04:34.795Z,83.00
2023-04-17T12:07:03.964Z,83.00
2023-04-17T12:09:32.684Z,83.00
2023-04-17T12:12:01.799Z,83.00
2023-04-17T12:14:30.331Z,82.90
2023-04-17T12:16:58.686Z,82.90
2023-04-17T12:19:29.572Z,82.90
2023-04-17T12:21:59.864Z,83.70
2023-04-17T12:24:28.110Z,82.90
2023-04-17T12:26:58.586Z,83.00
2023-04-17T12:29:40.589Z,82.90
2023-04-17T12:32:11.967Z,82.90
2023-04-17T12:34:41.787Z,83.00
2023-04-17T12:37:10.072Z,83.30
2023-04-17T12:39:38.649Z,83.10
2023-04-17T12:42:07.094Z,83.20
2023-04-17T12:44:35.758Z,83.00
2023-04-17T12:47:04.224Z,83.10
2023-04-17T12:49:32.583Z,83.10
2023-04-17T12:52:03.686Z,83.00
2023-04-17T12:54:33.019Z,83.00
2023-04-17T12:57:02.087Z,83.10
2023-04-17T12:59:30.451Z,83.20
2023-04-17T13:01:58.867Z,83.00
2023-04-17T13:04:27.338Z,83.50
2023-04-17T13:06:55.790Z,83.40
2023-04-17T13:09:25.640Z,83.20
2023-04-17T13:11:53.900Z,83.40
2023-04-17T13:14:22.170Z,83.30
2023-04-17T13:16:50.918Z,83.40
2023-04-17T13:19:20.016Z,83.40
2023-04-17T13:21:48.481Z,83.20
2023-04-17T13:24:16.790Z,83.20
2023-04-17T13:26:46.574Z,83.10
2023-04-17T13:29:17.030Z,83.10
2023-04-17T13:31:46.834Z,83.20
2023-04-17T13:34:15.137Z,83.20
2023-04-17T13:36:44.966Z,83.20
2023-04-17T13:39:13.656Z,83.20
2023-04-17T13:41:42.374Z,83.40
2023-04-17T13:44:12.667Z,83.30
2023-04-17T13:46:41.655Z,83.30
2023-04-17T13:49:10.011Z,83.40
2023-04-17T13:51:38.505Z,83.40
2023-04-17T13:54:06.874Z,83.40
2023-04-17T13:56:35.425Z,83.40
2023-04-17T13:59:05.220Z,83.40
2023-04-17T14:01:35.201Z,83.40
2023-04-17T14:04:03.835Z,83.40
2023-04-17T14:06:34.124Z,83.40
2023-04-17T14:09:02.627Z,83.40
2023-04-17T14:11:31.012Z,83.40
2023-04-17T14:13:59.391Z,83.30
2023-04-17T14:16:28.140Z,83.40
2023-04-17T14:19:01.371Z,83.40
2023-04-17T14:21:35.239Z,83.40
2023-04-17T14:24:03.949Z,83.50
2023-04-17T14:26:32.490Z,83.50
2023-04-17T14:29:00.983Z,83.50
2023-04-17T14:31:29.460Z,83.60
2023-04-17T14:33:59.228Z,83.60
2023-04-17T14:36:27.682Z,83.60
2023-04-17T14:38:55.992Z,83.70
2023-04-17T14:41:29.720Z,83.60
2023-04-17T14:43:58.202Z,83.60
2023-04-17T14:46:26.586Z,83.60
2023-04-17T14:48:56.328Z,83.60
2023-04-17T14:51:27.225Z,83.70
2023-04-17T14:53:55.901Z,83.70
2023-04-17T14:56:24.424Z,83.60
2023-04-17T14:58:52.821Z,83.70
2023-04-17T15:01:21.536Z,83.60
2023-04-17T15:03:50.049Z,83.70
2023-04-17T15:06:18.865Z,83.60
2023-04-17T15:08:48.596Z,83.70
2023-04-17T15:11:17.215Z,83.70
2023-04-17T15:13:45.439Z,84.60
2023-04-17T15:16:13.904Z,83.90
2023-04-17T15:18:42.273Z,83.80
2023-04-17T15:21:10.666Z,83.80
2023-04-17T15:23:39.128Z,83.90
2023-04-17T15:26:09.158Z,83.80
2023-04-17T15:28:37.862Z,84.00
2023-04-17T15:31:06.393Z,83.90
2023-04-17T15:33:35.066Z,83.90
2023-04-17T15:36:03.508Z,83.90
2023-04-17T15:38:31.991Z,83.90
2023-04-17T15:41:00.774Z,84.00
2023-04-17T15:43:30.644Z,83.90
2023-04-17T15:45:59.668Z,83.90
2023-04-17T15:48:28.290Z,83.90
2023-04-17T15:50:56.565Z,83.90
2023-04-17T15:53:26.163Z,83.90
2023-04-17T15:55:54.966Z,84.00
2023-04-17T15:58:23.295Z,84.00
2023-04-17T16:00:52.958Z,83.90
2023-04-17T16:03:21.294Z,84.00
2023-04-17T16:05:50.237Z,83.90
2023-04-17T16:08:19.374Z,84.00
2023-04-17T16:10:47.706Z,84.00
2023-04-17T16:13:16.634Z,84.00
2023-04-17T16:15:45.004Z,84.10
2023-04-17T16:18:15.936Z,84.10
2023-04-17T16:20:44.426Z,84.10
2023-04-17T16:23:12.741Z,84.10
2023-04-17T16:25:41.023Z,84.10
2023-04-17T16:28:09.355Z,84.90
2023-04-17T16:30:37.826Z,84.10
2023-04-17T16:33:06.185Z,84.20
2023-04-17T16:35:36.358Z,84.30
2023-04-17T16:38:04.676Z,84.20
2023-04-17T16:40:33.014Z,85.00
2023-04-17T16:43:01.238Z,84.20
2023-04-17T16:45:29.664Z,85.00
2023-04-17T16:47:58.044Z,85.10
2023-04-17T16:50:26.319Z,85.10
2023-04-17T16:52:55.970Z,84.20
2023-04-17T16:55:24.816Z,85.00
2023-04-17T16:57:53.122Z,84.30
2023-04-17T17:00:21.955Z,84.30
2023-04-17T17:02:50.572Z,84.30
2023-04-17T17:05:18.988Z,84.20
2023-04-17T17:07:47.396Z,84.30
2023-04-17T17:10:17.767Z,84.30
2023-04-17T17:12:46.203Z,85.10
2023-04-17T17:15:14.570Z,84.40
2023-04-17T17:17:43.126Z,84.40
2023-04-17T17:20:12.529Z,84.40
2023-04-17T17:22:40.875Z,84.40
2023-04-17T17:25:09.956Z,84.40
2023-04-17T17:27:39.804Z,84.40
2023-04-17T17:30:09.874Z,84.50
2023-04-17T17:32:39.317Z,84.50
2023-04-17T17:35:08.775Z,84.50
2023-04-17T17:37:37.304Z,84.50
2023-04-17T17:40:06.633Z,84.50
2023-04-17T17:42:34.985Z,84.50
2023-04-17T17:45:06.038Z,84.50
2023-04-17T17:47:34.625Z,84.50
2023-04-17T17:50:03.219Z,84.60
2023-04-17T17:52:31.734Z,84.60
2023-04-17T17:55:00.045Z,85.50
2023-04-17T17:57:35.688Z,85.50
2023-04-17T18:00:16.764Z,84.80
2023-04-17T18:02:45.459Z,84.80
2023-04-17T18:05:14.006Z,84.90
2023-04-17T18:07:43.206Z,84.90
2023-04-17T18:10:12.193Z,85.00
2023-04-17T18:12:40.571Z,85.00
2023-04-17T18:15:10.269Z,85.00
2023-04-17T18:17:40.150Z,85.10
2023-04-17T18:20:09.822Z,85.10
2023-04-17T18:22:38.482Z,85.00
2023-04-17T18:25:08.270Z,85.10
2023-04-17T18:27:37.309Z,85.10
2023-04-17T18:30:07.188Z,85.10
2023-04-17T18:32:36.056Z,85.00
2023-04-17T18:35:06.645Z,85.00
2023-04-17T18:37:35.031Z,85.20
2023-04-17T18:40:03.379Z,85.10
2023-04-17T18:42:31.680Z,85.20
2023-04-17T18:45:00.976Z,86.00
2023-04-17T18:47:29.995Z,85.20
2023-04-17T18:49:58.431Z,85.20
2023-04-17T18:52:28.246Z,85.30
2023-04-17T18:54:56.526Z,85.30
2023-04-17T18:57:25.996Z,85.20
2023-04-17T18:59:54.299Z,85.20
2023-04-17T19:02:22.726Z,85.30
2023-04-17T19:04:51.128Z,85.30
2023-04-17T19:07:19.362Z,85.30
2023-04-17T19:09:49.062Z,85.20
2023-04-17T19:12:17.484Z,85.30
2023-04-17T19:14:45.806Z,86.10
2023-04-17T19:17:14.068Z,86.20
2023-04-17T19:19:42.306Z,85.40
2023-04-17T19:22:10.675Z,86.20
2023-04-17T19:24:39.014Z,85.40
2023-04-17T19:27:08.671Z,85.40
2023-04-17T19:29:37.080Z,85.40
2023-04-17T19:32:05.926Z,85.40
2023-04-17T19:34:34.233Z,85.40
2023-04-17T19:37:02.543Z,85.50
2023-04-17T19:39:31.229Z,86.30
2023-04-17T19:41:59.643Z,85.50
2023-04-17T19:44:29.404Z,85.40
2023-04-17T19:46:58.418Z,85.40
2023-04-17T19:49:26.742Z,85.40
2023-04-17T19:51:55.085Z,85.50
2023-04-17T19:54:23.403Z,85.40
2023-04-17T19:56:51.707Z,86.30
2023-04-17T19:59:19.983Z,85.40
2023-04-17T20:01:49.781Z,85.40
2023-04-17T20:04:18.182Z,85.50
2023-04-17T20:06:46.411Z,85.50
2023-04-17T20:09:15.469Z,85.50
2023-04-17T20:11:43.876Z,85.50
2023-04-17T20:14:14.717Z,85.40
2023-04-17T20:16:45.230Z,85.50
2023-04-17T20:19:15.784Z,85.50
2023-04-17T20:21:44.050Z,85.50
2023-04-17T20:24:12.964Z,86.30
2023-04-17T20:26:41.167Z,85.50
2023-04-17T20:29:09.564Z,85.50
2023-04-17T20:31:38.970Z,85.50
2023-04-17T20:34:07.375Z,85.50
2023-04-17T20:36:37.070Z,85.50
2023-04-17T20:39:05.588Z,85.50
2023-04-17T20:41:33.877Z,85.50
2023-04-17T20:44:02.844Z,85.50
2023-04-17T20:46:31.650Z,86.30
2023-04-17T20:48:59.988Z,85.50
2023-04-17T20:51:28.494Z,85.50
2023-04-17T20:53:58.177Z,85.60
2023-04-17T20:56:26.572Z,85.50
2023-04-17T20:58:54.829Z,85.50
2023-04-17T21:01:23.142Z,85.60
2023-04-17T21:03:51.580Z,85.60
2023-04-17T21:06:21.140Z,85.60
2023-04-17T21:08:49.545Z,85.60
2023-04-17T21:11:19.185Z,85.60
2023-04-17T21:13:48.018Z,86.40
2023-04-17T21:16:16.587Z,85.60
2023-04-17T21:18:46.042Z,85.60
2023-04-17T21:21:14.293Z,85.60
2023-04-17T21:23:42.610Z,86.50
2023-04-17T21:26:10.998Z,85.60
2023-04-17T21:28:40.935Z,85.50
2023-04-17T21:31:10.385Z,85.60
2023-04-17T21:33:39.539Z,85.50
2023-04-17T21:36:08.312Z,86.50
2023-04-17T21:38:36.612Z,85.60
2023-04-17T21:41:05.027Z,85.70
2023-04-17T21:43:33.236Z,85.60
2023-04-17T21:46:10.389Z,85.60
2023-04-17T21:48:38.950Z,85.50
2023-04-17T21:51:07.338Z,85.60
2023-04-17T21:53:36.868Z,85.60
2023-04-17T21:56:06.954Z,85.60
2023-04-17T21:58:35.484Z,85.60
2023-04-17T22:01:05.362Z,85.60
2023-04-17T22:03:33.990Z,85.60
2023-04-17T22:06:02.231Z,85.50
2023-04-17T22:08:30.600Z,85.60
2023-04-17T22:10:58.903Z,85.60
2023-04-17T22:13:27.284Z,85.60
2023-04-17T22:15:57.805Z,85.50
2023-04-17T22:18:28.405Z,85.50
2023-04-17T22:20:56.741Z,85.60
2023-04-17T22:23:25.084Z,85.50
2023-04-17T22:25:53.301Z,85.60
2023-04-17T22:28:21.715Z,86.40
2023-04-17T22:30:51.982Z,85.50
2023-04-17T22:33:20.453Z,85.60
2023-04-17T22:35:50.947Z,85.60
2023-04-17T22:38:20.134Z,86.40
2023-04-17T22:40:48.611Z,85.60
2023-04-17T22:43:16.964Z,85.60
2023-04-17T22:45:45.302Z,85.60
2023-04-17T22:48:13.653Z,85.60
2023-04-17T22:50:42.846Z,85.60
2023-04-17T22:53:12.669Z,85.60
2023-04-17T22:55:41.026Z,85.60
2023-04-17T22:58:09.344Z,85.60
2023-04-17T23:00:38.108Z,85.60
2023-04-17T23:03:06.471Z,85.60
2023-04-17T23:05:34.930Z,85.60
2023-04-17T23:08:03.538Z,85.60
2023-04-17T23:10:33.436Z,85.60
2023-04-17T23:13:01.722Z,85.60
2023-04-17T23:15:30.177Z,85.60
2023-04-17T23:17:58.471Z,85.60
2023-04-17T23:20:26.917Z,85.70
2023-04-17T23:22:55.167Z,85.70
2023-04-17T23:25:23.459Z,85.60
2023-04-17T23:27:53.116Z,85.60
2023-04-17T23:30:21.788Z,85.60
2023-04-17T23:32:51.086Z,85.60
2023-04-17T23:35:19.594Z,85.60
2023-04-17T23:37:47.867Z,85.60
2023-04-17T23:40:16.365Z,85.60
2023-04-17T23:42:45.323Z,85.60
2023-04-17T23:45:15.321Z,85.70
2023-04-17T23:47:43.784Z,85.60
2023-04-17T23:50:12.583Z,85.70
2023-04-17T23:52:40.914Z,85.60
2023-04-17T23:55:09.788Z,85.60
2023-04-17T23:57:38.465Z,85.60
